sensor_id;sensor_type;location;lat;lon;timestamp;temperature;humidity
7212;DHT22;3647;48.792;9.802;2023-07-02T10:08:25;21.10;99.90
7212;DHT22;3647;48.792;9.802;2023-07-02T10:11:06;23.10;99.90
7212;DHT22;3647;48.792;9.802;2023-07-02T10:13:33;22.80;99.90
7212;DHT22;3647;48.792;9.802;2023-07-02T10:16:01;22.20;99.90
7212;DHT22;3647;48.792;9.802;2023-07-02T10:18:28;22.20;99.90
7212;DHT22;3647;48.792;9.802;2023-07-02T10:20:55;22.40;99.90
7212;DHT22;3647;48.792;9.802;2023-07-02T10:23:34;23.00;99.90
7212;DHT22;3647;48.792;9.802;2023-07-02T10:26:13;23.50;99.90
7212;DHT22;3647;48.792;9.802;2023-07-02T10:28:40;23.50;99.90
7212;DHT22;3647;48.792;9.802;2023-07-02T10:31:18;23.50;99.90
7212;DHT22;3647;48.792;9.802;2023-07-02T10:33:46;22.80;99.90
7212;DHT22;3647;48.792;9.802;2023-07-02T10:36:18;22.60;99.90
7212;DHT22;3647;48.792;9.802;2023-07-02T10:38:47;22.10;99.90
7212;DHT22;3647;48.792;9.802;2023-07-02T10:41:23;22.00;99.90
7212;DHT22;3647;48.792;9.802;2023-07-02T10:43:51;22.40;99.90
7212;DHT22;3647;48.792;9.802;2023-07-02T10:46:20;22.90;99.90
7212;DHT22;3647;48.792;9.802;2023-07-02T10:48:54;22.90;99.90
7212;DHT22;3647;48.792;9.802;2023-07-02T10:51:21;23.30;99.90
7212;DHT22;3647;48.792;9.802;2023-07-02T10:54:00;23.60;99.90
7212;DHT22;3647;48.792;9.802;2023-07-02T10:56:28;24.00;99.90
7212;DHT22;3647;48.792;9.802;2023-07-02T10:58:55;24.20;99.90
7212;DHT22;3647;48.792;9.802;2023-07-02T11:01:23;24.60;99.90
7212;DHT22;3647;48.792;9.802;2023-07-02T11:03:56;24.50;99.90
7212;DHT22;3647;48.792;9.802;2023-07-02T11:06:23;24.70;99.90
7212;DHT22;3647;48.792;9.802;2023-07-02T11:08:51;24.70;99.90
7212;DHT22;3647;48.792;9.802;2023-07-02T11:11:19;24.50;99.90
7212;DHT22;3647;48.792;9.802;2023-07-02T11:13:46;24.60;99.90
7212;DHT22;3647;48.792;9.802;2023-07-02T11:16:21;24.60;99.90
7212;DHT22;3647;48.792;9.802;2023-07-02T11:18:50;24.20;99.90
7212;DHT22;3647;48.792;9.802;2023-07-02T11:21:16;24.20;99.90
7212;DHT22;3647;48.792;9.802;2023-07-02T11:23:43;24.20;99.90
7212;DHT22;3647;48.792;9.802;2023-07-02T11:26:10;24.50;99.90
7212;DHT22;3647;48.792;9.802;2023-07-02T11:28:48;24.70;99.90
7212;DHT22;3647;48.792;9.802;2023-07-02T11:31:24;24.70;99.90
7212;DHT22;3647;48.792;9.802;2023-07-02T11:33:52;25.00;99.90
7212;DHT22;3647;48.792;9.802;2023-07-02T11:36:22;24.90;99.90
7212;DHT22;3647;48.792;9.802;2023-07-02T11:38:50;24.50;99.90
7212;DHT22;3647;48.792;9.802;2023-07-02T11:41:18;24.60;99.90
7212;DHT22;3647;48.792;9.802;2023-07-02T11:43:46;24.70;99.90
7212;DHT22;3647;48.792;9.802;2023-07-02T11:46:13;24.00;99.90
7212;DHT22;3647;48.792;9.802;2023-07-02T11:48:40;24.00;99.90
7212;DHT22;3647;48.792;9.802;2023-07-02T11:51:07;23.90;99.90
7212;DHT22;3647;48.792;9.802;2023-07-02T11:53:34;23.80;99.90
7212;DHT22;3647;48.792;9.802;2023-07-02T11:56:01;24.00;99.90
7212;DHT22;3647;48.792;9.802;2023-07-02T11:58:27;24.30;99.90
7212;DHT22;3647;48.792;9.802;2023-07-02T12:00:55;24.70;99.90
7212;DHT22;3647;48.792;9.802;2023-07-02T12:03:22;24.20;99.90
7212;DHT22;3647;48.792;9.802;2023-07-02T12:05:49;24.20;99.90
7212;DHT22;3647;48.792;9.802;2023-07-02T12:08:16;24.20;99.90
7212;DHT22;3647;48.792;9.802;2023-07-02T12:10:43;24.60;99.90
7212;DHT22;3647;48.792;9.802;2023-07-02T12:13:10;24.90;99.90
7212;DHT22;3647;48.792;9.802;2023-07-02T12:15:37;25.40;99.90
7212;DHT22;3647;48.792;9.802;2023-07-02T12:18:05;25.40;99.90
7212;DHT22;3647;48.792;9.802;2023-07-02T12:20:32;25.80;99.90
7212;DHT22;3647;48.792;9.802;2023-07-02T12:22:59;26.10;99.90
7212;DHT22;3647;48.792;9.802;2023-07-02T12:25:26;26.10;99.80
7212;DHT22;3647;48.792;9.802;2023-07-02T12:27:53;26.40;98.80
7212;DHT22;3647;48.792;9.802;2023-07-02T12:30:19;26.30;99.30
7212;DHT22;3647;48.792;9.802;2023-07-02T12:32:46;26.10;98.30
7212;DHT22;3647;48.792;9.802;2023-07-02T12:35:14;25.40;99.30
7212;DHT22;3647;48.792;9.802;2023-07-02T12:37:45;25.20;99.60
7212;DHT22;3647;48.792;9.802;2023-07-02T12:40:12;24.60;99.70
7212;DHT22;3647;48.792;9.802;2023-07-02T12:42:40;25.10;99.90
7212;DHT22;3647;48.792;9.802;2023-07-02T12:45:09;25.30;99.90
7212;DHT22;3647;48.792;9.802;2023-07-02T12:47:36;25.50;99.50
7212;DHT22;3647;48.792;9.802;2023-07-02T12:50:04;25.60;99.80
7212;DHT22;3647;48.792;9.802;2023-07-02T12:52:32;25.30;97.40
7212;DHT22;3647;48.792;9.802;2023-07-02T12:54:59;24.70;97.50
7212;DHT22;3647;48.792;9.802;2023-07-02T12:57:26;25.00;98.40
7212;DHT22;3647;48.792;9.802;2023-07-02T12:59:53;25.40;98.00
7212;DHT22;3647;48.792;9.802;2023-07-02T13:02:20;25.40;97.90
7212;DHT22;3647;48.792;9.802;2023-07-02T13:04:47;25.50;97.40
7212;DHT22;3647;48.792;9.802;2023-07-02T13:07:14;25.20;97.70
7212;DHT22;3647;48.792;9.802;2023-07-02T13:09:43;25.20;98.60
7212;DHT22;3647;48.792;9.802;2023-07-02T13:12:10;25.20;98.20
7212;DHT22;3647;48.792;9.802;2023-07-02T13:14:37;25.30;98.00
7212;DHT22;3647;48.792;9.802;2023-07-02T13:17:04;26.90;96.50
7212;DHT22;3647;48.792;9.802;2023-07-02T13:19:31;25.70;96.60
7212;DHT22;3647;48.792;9.802;2023-07-02T13:21:58;25.30;96.90
7212;DHT22;3647;48.792;9.802;2023-07-02T13:24:28;25.70;96.90
7212;DHT22;3647;48.792;9.802;2023-07-02T13:26:56;25.60;95.60
7212;DHT22;3647;48.792;9.802;2023-07-02T13:29:23;25.70;96.40
7212;DHT22;3647;48.792;9.802;2023-07-02T13:31:50;26.00;96.20
7212;DHT22;3647;48.792;9.802;2023-07-02T13:34:16;25.40;95.50
7212;DHT22;3647;48.792;9.802;2023-07-02T13:36:43;24.90;96.80
7212;DHT22;3647;48.792;9.802;2023-07-02T13:39:10;25.10;96.40
7212;DHT22;3647;48.792;9.802;2023-07-02T13:41:36;25.30;96.60
7212;DHT22;3647;48.792;9.802;2023-07-02T13:44:05;25.20;96.10
7212;DHT22;3647;48.792;9.802;2023-07-02T13:46:32;24.90;96.00
7212;DHT22;3647;48.792;9.802;2023-07-02T13:48:58;25.10;96.00
7212;DHT22;3647;48.792;9.802;2023-07-02T13:51:25;25.40;96.40
7212;DHT22;3647;48.792;9.802;2023-07-02T13:53:52;25.80;94.80
7212;DHT22;3647;48.792;9.802;2023-07-02T13:56:18;25.70;94.20
7212;DHT22;3647;48.792;9.802;2023-07-02T13:58:46;25.70;95.00
7212;DHT22;3647;48.792;9.802;2023-07-02T14:01:14;25.70;94.90
7212;DHT22;3647;48.792;9.802;2023-07-02T14:03:40;25.40;94.80
7212;DHT22;3647;48.792;9.802;2023-07-02T14:06:07;25.30;94.40
7212;DHT22;3647;48.792;9.802;2023-07-02T14:08:34;24.40;94.80
7212;DHT22;3647;48.792;9.802;2023-07-02T14:11:02;24.40;95.10
7212;DHT22;3647;48.792;9.802;2023-07-02T14:13:28;24.60;95.10
7212;DHT22;3647;48.792;9.802;2023-07-02T14:15:57;25.00;95.10
7212;DHT22;3647;48.792;9.802;2023-07-02T14:18:23;25.50;94.50
7212;DHT22;3647;48.792;9.802;2023-07-02T14:20:50;25.70;93.50
7212;DHT22;3647;48.792;9.802;2023-07-02T14:23:17;25.40;94.30
7212;DHT22;3647;48.792;9.802;2023-07-02T14:25:43;25.60;94.10
7212;DHT22;3647;48.792;9.802;2023-07-02T14:28:10;25.70;92.70
7212;DHT22;3647;48.792;9.802;2023-07-02T14:30:37;25.50;93.00
7212;DHT22;3647;48.792;9.802;2023-07-02T14:33:05;25.30;93.00
7212;DHT22;3647;48.792;9.802;2023-07-02T14:35:32;25.30;93.90
7212;DHT22;3647;48.792;9.802;2023-07-02T14:38:00;25.50;93.20
7212;DHT22;3647;48.792;9.802;2023-07-02T14:40:27;25.40;93.10
7212;DHT22;3647;48.792;9.802;2023-07-02T14:42:54;25.70;94.60
7212;DHT22;3647;48.792;9.802;2023-07-02T14:45:21;25.70;92.00
7212;DHT22;3647;48.792;9.802;2023-07-02T14:47:48;25.50;92.00
7212;DHT22;3647;48.792;9.802;2023-07-02T14:50:16;25.30;92.60
7212;DHT22;3647;48.792;9.802;2023-07-02T14:52:43;25.60;92.30
7212;DHT22;3647;48.792;9.802;2023-07-02T14:55:09;25.90;93.10
7212;DHT22;3647;48.792;9.802;2023-07-02T14:57:36;25.80;91.60
7212;DHT22;3647;48.792;9.802;2023-07-02T15:00:04;26.00;92.10
7212;DHT22;3647;48.792;9.802;2023-07-02T15:02:31;26.00;91.60
7212;DHT22;3647;48.792;9.802;2023-07-02T15:04:58;26.10;91.80
7212;DHT22;3647;48.792;9.802;2023-07-02T15:07:26;26.30;92.30
7212;DHT22;3647;48.792;9.802;2023-07-02T15:09:53;26.60;91.00
7212;DHT22;3647;48.792;9.802;2023-07-02T15:12:20;26.40;90.10
7212;DHT22;3647;48.792;9.802;2023-07-02T15:14:47;26.30;90.50
7212;DHT22;3647;48.792;9.802;2023-07-02T15:17:13;26.20;90.70
7212;DHT22;3647;48.792;9.802;2023-07-02T15:19:40;26.20;91.10
7212;DHT22;3647;48.792;9.802;2023-07-02T15:22:07;26.00;90.40
7212;DHT22;3647;48.792;9.802;2023-07-02T15:24:35;25.60;91.00
7212;DHT22;3647;48.792;9.802;2023-07-02T15:27:02;25.50;90.90
7212;DHT22;3647;48.792;9.802;2023-07-02T15:29:29;25.00;90.80
7212;DHT22;3647;48.792;9.802;2023-07-02T15:31:55;25.10;91.30
7212;DHT22;3647;48.792;9.802;2023-07-02T15:34:22;25.20;90.50
7212;DHT22;3647;48.792;9.802;2023-07-02T15:36:49;25.40;90.80
7212;DHT22;3647;48.792;9.802;2023-07-02T15:39:16;25.60;91.20
7212;DHT22;3647;48.792;9.802;2023-07-02T15:41:49;25.70;90.70
7212;DHT22;3647;48.792;9.802;2023-07-02T15:44:16;25.40;90.20
7212;DHT22;3647;48.792;9.802;2023-07-02T15:46:42;25.50;91.80
7212;DHT22;3647;48.792;9.802;2023-07-02T15:49:11;25.70;90.70
7212;DHT22;3647;48.792;9.802;2023-07-02T15:51:39;25.40;90.10
7212;DHT22;3647;48.792;9.802;2023-07-02T15:54:08;25.40;90.00
7212;DHT22;3647;48.792;9.802;2023-07-02T15:56:35;25.40;90.00
7212;DHT22;3647;48.792;9.802;2023-07-02T15:59:03;25.50;90.40
7212;DHT22;3647;48.792;9.802;2023-07-02T16:01:31;25.80;90.70
7212;DHT22;3647;48.792;9.802;2023-07-02T16:03:59;25.70;89.00
7212;DHT22;3647;48.792;9.802;2023-07-02T16:06:26;25.80;88.50
7212;DHT22;3647;48.792;9.802;2023-07-02T16:08:58;25.80;89.40
7212;DHT22;3647;48.792;9.802;2023-07-02T16:11:25;25.80;89.10
7212;DHT22;3647;48.792;9.802;2023-07-02T16:13:57;25.90;90.20
7212;DHT22;3647;48.792;9.802;2023-07-02T16:16:25;26.30;90.80
7212;DHT22;3647;48.792;9.802;2023-07-02T16:18:52;26.60;90.60
7212;DHT22;3647;48.792;9.802;2023-07-02T16:21:19;26.70;90.40
7212;DHT22;3647;48.792;9.802;2023-07-02T16:23:46;26.90;89.00
7212;DHT22;3647;48.792;9.802;2023-07-02T16:26:12;27.00;88.20
7212;DHT22;3647;48.792;9.802;2023-07-02T16:28:39;26.90;87.20
7212;DHT22;3647;48.792;9.802;2023-07-02T16:31:07;26.40;85.80
7212;DHT22;3647;48.792;9.802;2023-07-02T16:33:36;26.10;86.30
7212;DHT22;3647;48.792;9.802;2023-07-02T16:36:04;25.90;87.10
7212;DHT22;3647;48.792;9.802;2023-07-02T16:38:31;25.80;88.70
7212;DHT22;3647;48.792;9.802;2023-07-02T16:41:00;25.90;89.20
7212;DHT22;3647;48.792;9.802;2023-07-02T16:43:27;26.00;88.90
7212;DHT22;3647;48.792;9.802;2023-07-02T16:45:55;26.10;88.60
7212;DHT22;3647;48.792;9.802;2023-07-02T16:48:23;25.40;86.80
7212;DHT22;3647;48.792;9.802;2023-07-02T16:50:57;25.30;90.00
7212;DHT22;3647;48.792;9.802;2023-07-02T16:55:52;25.00;88.50
7212;DHT22;3647;48.792;9.802;2023-07-02T16:58:19;24.80;88.90
7212;DHT22;3647;48.792;9.802;2023-07-02T17:00:46;24.90;89.40
7212;DHT22;3647;48.792;9.802;2023-07-02T17:03:13;25.20;91.20
7212;DHT22;3647;48.792;9.802;2023-07-02T17:05:40;25.40;90.30
7212;DHT22;3647;48.792;9.802;2023-07-02T17:08:15;25.50;88.80
7212;DHT22;3647;48.792;9.802;2023-07-02T17:13:14;25.40;88.20
7212;DHT22;3647;48.792;9.802;2023-07-02T17:15:53;25.40;89.80
7212;DHT22;3647;48.792;9.802;2023-07-02T17:18:23;25.50;88.90
7212;DHT22;3647;48.792;9.802;2023-07-02T17:20:54;25.60;90.20
7212;DHT22;3647;48.792;9.802;2023-07-02T17:23:37;25.50;90.80
7212;DHT22;3647;48.792;9.802;2023-07-02T17:29:27;25.40;87.80
7212;DHT22;3647;48.792;9.802;2023-07-02T17:32:00;24.90;88.20
7212;DHT22;3647;48.792;9.802;2023-07-02T17:34:35;24.90;89.60
7212;DHT22;3647;48.792;9.802;2023-07-02T17:37:15;24.80;90.80
7212;DHT22;3647;48.792;9.802;2023-07-02T17:39:55;25.00;90.90
7212;DHT22;3647;48.792;9.802;2023-07-02T17:42:36;24.70;89.40
7212;DHT22;3647;48.792;9.802;2023-07-02T17:45:13;24.60;90.00
7212;DHT22;3647;48.792;9.802;2023-07-02T17:47:43;24.70;91.00
7212;DHT22;3647;48.792;9.802;2023-07-02T17:54:00;22.70;89.50
7212;DHT22;3647;48.792;9.802;2023-07-02T18:00:49;24.40;89.80
7212;DHT22;3647;48.792;9.802;2023-07-02T18:04:41;24.40;89.30
7212;DHT22;3647;48.792;9.802;2023-07-02T18:08:20;25.60;90.40
7212;DHT22;3647;48.792;9.802;2023-07-02T18:15:04;24.10;90.50
7212;DHT22;3647;48.792;9.802;2023-07-02T18:17:38;24.30;90.90
7212;DHT22;3647;48.792;9.802;2023-07-02T18:20:10;24.10;91.80
7212;DHT22;3647;48.792;9.802;2023-07-02T18:22:38;24.20;90.90
7212;DHT22;3647;48.792;9.802;2023-07-02T18:25:11;24.40;92.40
7212;DHT22;3647;48.792;9.802;2023-07-02T18:27:43;24.00;91.90
7212;DHT22;3647;48.792;9.802;2023-07-02T18:30:14;23.80;93.20
7212;DHT22;3647;48.792;9.802;2023-07-02T18:32:51;24.00;92.90
7212;DHT22;3647;48.792;9.802;2023-07-02T18:35:18;23.50;91.00
7212;DHT22;3647;48.792;9.802;2023-07-02T18:37:48;21.70;91.40
7212;DHT22;3647;48.792;9.802;2023-07-02T18:40:16;23.00;91.90
7212;DHT22;3647;48.792;9.802;2023-07-02T18:42:50;23.70;92.80
7212;DHT22;3647;48.792;9.802;2023-07-02T18:45:20;23.30;92.40
7212;DHT22;3647;48.792;9.802;2023-07-02T18:47:51;23.30;93.00
7212;DHT22;3647;48.792;9.802;2023-07-02T18:50:25;22.20;92.40
7212;DHT22;3647;48.792;9.802;2023-07-02T18:52:55;23.20;93.40
7212;DHT22;3647;48.792;9.802;2023-07-02T18:55:22;23.10;93.90
7212;DHT22;3647;48.792;9.802;2023-07-02T18:57:50;23.20;94.20
7212;DHT22;3647;48.792;9.802;2023-07-02T19:00:27;22.90;94.60
7212;DHT22;3647;48.792;9.802;2023-07-02T19:02:56;22.80;94.10
7212;DHT22;3647;48.792;9.802;2023-07-02T19:05:24;22.70;94.70
7212;DHT22;3647;48.792;9.802;2023-07-02T19:07:52;22.80;95.30
7212;DHT22;3647;48.792;9.802;2023-07-02T19:10:22;22.70;95.80
7212;DHT22;3647;48.792;9.802;2023-07-02T19:12:49;22.60;95.80
7212;DHT22;3647;48.792;9.802;2023-07-02T19:15:16;21.20;95.20
7212;DHT22;3647;48.792;9.802;2023-07-02T19:17:46;22.30;94.30
7212;DHT22;3647;48.792;9.802;2023-07-02T19:20:15;22.40;95.50
7212;DHT22;3647;48.792;9.802;2023-07-02T19:22:47;22.10;95.80
7212;DHT22;3647;48.792;9.802;2023-07-02T19:25:17;22.10;95.30
7212;DHT22;3647;48.792;9.802;2023-07-02T19:27:46;23.80;96.30
7212;DHT22;3647;48.792;9.802;2023-07-02T19:30:16;22.10;96.70
7212;DHT22;3647;48.792;9.802;2023-07-02T19:32:45;22.00;97.60
7212;DHT22;3647;48.792;9.802;2023-07-02T19:35:12;20.50;96.20
7212;DHT22;3647;48.792;9.802;2023-07-02T19:37:41;21.90;96.80
7212;DHT22;3647;48.792;9.802;2023-07-02T19:40:08;21.60;97.40
7212;DHT22;3647;48.792;9.802;2023-07-02T19:42:35;21.60;97.00
7212;DHT22;3647;48.792;9.802;2023-07-02T19:45:04;21.60;97.60
7212;DHT22;3647;48.792;9.802;2023-07-02T19:47:32;21.50;97.30
7212;DHT22;3647;48.792;9.802;2023-07-02T19:50:01;21.30;97.50
7212;DHT22;3647;48.792;9.802;2023-07-02T19:52:30;21.20;97.60
7212;DHT22;3647;48.792;9.802;2023-07-02T19:55:03;21.20;97.90
7212;DHT22;3647;48.792;9.802;2023-07-02T19:57:34;21.30;98.50
7212;DHT22;3647;48.792;9.802;2023-07-02T20:00:01;21.50;98.00
7212;DHT22;3647;48.792;9.802;2023-07-02T20:02:31;21.20;98.40
7212;DHT22;3647;48.792;9.802;2023-07-02T20:05:00;18.60;97.40
7212;DHT22;3647;48.792;9.802;2023-07-02T20:07:30;21.00;98.70
7212;DHT22;3647;48.792;9.802;2023-07-02T20:09:57;21.20;99.70
7212;DHT22;3647;48.792;9.802;2023-07-02T20:12:28;21.40;99.90
7212;DHT22;3647;48.792;9.802;2023-07-02T20:15:00;21.20;99.90
7212;DHT22;3647;48.792;9.802;2023-07-02T20:17:33;20.30;99.90
7212;DHT22;3647;48.792;9.802;2023-07-02T20:20:03;18.30;99.90
7212;DHT22;3647;48.792;9.802;2023-07-02T20:22:31;20.00;99.90
7212;DHT22;3647;48.792;9.802;2023-07-02T20:25:01;19.90;99.90
7212;DHT22;3647;48.792;9.802;2023-07-02T20:27:31;20.70;99.90
7212;DHT22;3647;48.792;9.802;2023-07-02T20:30:01;21.20;99.90
7212;DHT22;3647;48.792;9.802;2023-07-02T20:32:31;20.20;99.90
7212;DHT22;3647;48.792;9.802;2023-07-02T20:34:58;20.30;99.90
7212;DHT22;3647;48.792;9.802;2023-07-02T20:37:25;19.30;99.90
7212;DHT22;3647;48.792;9.802;2023-07-02T20:39:56;18.50;99.90
7212;DHT22;3647;48.792;9.802;2023-07-02T20:42:24;20.10;99.90
